Data for 09/06/2018

Time Sea-Level Adjusted Pressure Absolute Pressure Temperature Relative Humidity Dew Point   
(mb) (inHg) (mb) (inHg) (C) (F) (%) (C) (F)
00:05 1024 30.24 854 25.22 16.5 61.8 41 3.3 37.9
00:10 1025 30.27 854 25.22 16.7 62 41 3.4 38.1
00:15 1026 30.3 855 25.25 16.3 61.4 43 3.7 38.7
00:20 1025 30.27 854 25.22 15.4 59.7 44 3.2 37.7
00:25 1025 30.27 855 25.25 15.6 60.1 44 3.4 38.2
00:30 1026 30.3 855 25.25 15.8 60.4 43 3.3 37.9
00:35 1026 30.3 855 25.25 15.8 60.5 43 3.3 38
00:40 1026 30.3 855 25.25 15.8 60.5 44 3.5 38.4
00:45 1025 30.27 855 25.25 15.5 59.9 45 3.8 38.8
00:50 1026 30.3 855 25.25 15.5 60 44 3.4 38.1
00:55 1026 30.3 855 25.25 15.6 60.1 44 3.5 38.3
01:00 1025 30.27 855 25.25 15.4 59.7 44 3.4 38.1
01:05 1026 30.3 855 25.25 15.4 59.7 43 3 37.5
01:10 1026 30.3 855 25.25 15.8 60.5 42 2.9 37.3
01:15 1026 30.3 855 25.25 15.8 60.4 44 3.6 38.5
01:20 1026 30.3 855 25.25 15.6 60.1 43 3.3 37.9
01:25 1026 30.3 855 25.25 15.6 60.1 45 3.8 38.8
01:30 1026 30.3 855 25.25 15.3 59.6 45 3.6 38.5
01:35 1026 30.3 855 25.25 15.2 59.4 45 3.6 38.4
01:40 1025 30.27 854 25.22 15.3 59.5 46 3.9 39
01:45 1025 30.27 854 25.22 15 59 47 3.8 38.8
01:50 1025 30.27 855 25.25 15 59 48 4.1 39.3
01:55 1025 30.27 855 25.25 14.9 58.7 47 3.8 38.9
02:00 1025 30.27 855 25.25 14.7 58.4 47 3.6 38.4
02:05 1025 30.27 854 25.22 14.6 58.2 47 3.6 38.5
02:10 1025 30.27 854 25.22 14.6 58.3 47 3.6 38.5
02:15 1025 30.27 854 25.22 14.6 58.3 47 3.6 38.6
02:20 1025 30.27 854 25.22 14.6 58.3 48 3.7 38.7
02:25 1025 30.27 854 25.22 14.6 58.2 48 3.6 38.5
02:30 1025 30.27 854 25.22 14.6 58.3 46 3.3 38
02:35 1025 30.27 854 25.22 14.7 58.4 46 3.4 38
02:40 1025 30.27 854 25.22 14.7 58.5 47 3.7 38.6
02:45 1025 30.27 854 25.22 14.8 58.6 45 2.9 37.3
02:50 1025 30.27 854 25.22 15.2 59.4 45 3.4 38.2
02:55 1025 30.27 854 25.22 14.8 58.6 48 3.9 39
03:00 1025 30.27 854 25.22 14.4 57.9 48 3.5 38.3
03:05 1025 30.27 854 25.22 14.7 58.4 44 2.8 37
03:10 1025 30.27 854 25.22 15.2 59.3 42 2.5 36.5
03:15 1025 30.27 854 25.22 15.4 59.7 43 2.9 37.2
03:20 1025 30.27 854 25.22 15.3 59.6 44 3.3 38
03:25 1025 30.27 854 25.22 14.8 58.6 46 3.4 38.1
03:30 1025 30.27 854 25.22 14.4 58 46 3.2 37.7
03:35 1025 30.27 854 25.22 14.5 58.2 45 2.7 36.9
03:40 1025 30.27 854 25.22 14.7 58.4 46 3.3 38
03:45 1025 30.27 854 25.22 14.5 58.2 46 3.1 37.6
03:50 1025 30.27 854 25.22 14.8 58.7 44 2.9 37.3
03:55 1025 30.27 854 25.22 15.2 59.4 42 2.5 36.5
04:00 1025 30.27 854 25.22 15.4 59.6 43 3.1 37.5
04:05 1025 30.27 854 25.22 15.2 59.3 44 3.1 37.5
04:10 1024 30.24 854 25.22 15.1 59.2 44 3 37.3
04:15 1024 30.24 854 25.22 15.2 59.4 43 2.9 37.2
04:20 1024 30.24 854 25.22 15.1 59.2 43 2.8 37
04:25 1024 30.24 853 25.19 15.3 59.5 41 2.1 35.8
04:30 1024 30.24 853 25.19 15.9 60.6 40 2.4 36.2
04:35 1024 30.24 853 25.19 16 60.9 40 2.4 36.4
04:40 1024 30.24 853 25.19 16.2 61.1 39 2.3 36.1
04:45 1024 30.24 853 25.19 16 60.8 41 2.7 36.9
04:50 1024 30.24 853 25.19 15.8 60.4 40 2.4 36.3
04:55 1024 30.24 853 25.19 15.8 60.5 39 2 35.6
05:00 1024 30.24 853 25.19 16.2 61.2 38 2 35.6
05:05 1024 30.24 853 25.19 16.3 61.3 38 2 35.6
05:10 1024 30.24 853 25.19 16.3 61.4 37 1.9 35.3
05:15 1024 30.24 853 25.19 16.4 61.6 36 1.5 34.8
05:20 1024 30.24 853 25.19 16.8 62.3 34 1.1 34
05:25 1024 30.24 853 25.19 17.1 62.8 34 1.2 34.1
05:30 1024 30.24 853 25.19 17.2 62.9 33 1 33.8
05:35 1024 30.24 853 25.19 17.3 63.2 33 0.9 33.7
05:40 1024 30.24 853 25.19 17.2 62.9 36 1.9 35.5
05:45 1024 30.24 853 25.19 16.5 61.8 36 1.5 34.6
05:50 1024 30.24 853 25.19 16.9 62.3 33 0.8 33.4
05:55 1024 30.24 853 25.19 17.9 64.3 31 0.6 33.1
06:00 1024 30.24 853 25.19 18.1 64.5 31 0.8 33.5
06:05 1024 30.24 853 25.19 18 64.5 30 0.3 32.6
06:10 1024 30.24 853 25.19 17.9 64.2 32 1.1 34
06:15 1024 30.24 853 25.19 17.2 62.9 34 1.2 34.1
06:20 1024 30.24 853 25.19 16.8 62.2 35 1.2 34.2
06:25 1024 30.24 853 25.19 16.6 61.9 35 1.2 34.1
06:30 1024 30.24 853 25.19 16.5 61.6 36 1.5 34.7
06:35 1024 30.24 853 25.19 16.2 61.2 37 1.5 34.6
06:40 1024 30.24 853 25.19 16.1 61 37 1.5 34.7
06:45 1024 30.24 853 25.19 16.1 61 38 1.8 35.3
06:50 1024 30.24 853 25.19 15.8 60.5 39 1.9 35.4
06:55 1024 30.24 854 25.22 15.6 60 40 2.3 36.1
07:00 1024 30.24 854 25.22 15.3 59.5 39 1.6 35
07:05 1024 30.24 854 25.22 15.9 60.6 37 1.2 34.2
07:10 1024 30.24 854 25.22 16.1 61 36 1.2 34.1
07:15 1025 30.27 854 25.22 16.1 61 37 1.6 34.9
07:20 1025 30.27 854 25.22 16 60.8 38 1.8 35.2
07:25 1025 30.27 854 25.22 15.7 60.2 40 2.2 35.9
07:30 1025 30.27 854 25.22 15.2 59.3 41 2.2 36
07:35 1025 30.27 854 25.22 14.9 58.7 43 2.5 36.6
07:40 1025 30.27 854 25.22 14.6 58.3 50 4.4 39.9
07:45 1025 30.27 854 25.22 14.3 57.7 50 4.1 39.3
07:50 1025 30.27 854 25.22 14.3 57.8 48 3.5 38.3
07:55 1025 30.27 854 25.22 14.7 58.5 43 2.3 36.1
08:00 1025 30.27 854 25.22 15 59.1 47 4 39.2
08:05 1025 30.27 854 25.22 15.1 59.1 45 3.3 38
08:10 1025 30.27 854 25.22 15.4 59.8 43 2.9 37.2
08:15 1025 30.27 854 25.22 15.7 60.2 41 2.6 36.6
08:20 1025 30.27 854 25.22 15.8 60.5 41 2.8 37
08:25 1025 30.27 854 25.22 16.3 61.3 39 2.3 36.1
08:30 1025 30.27 854 25.22 16.6 61.8 43 4.1 39.4
08:35 1025 30.27 854 25.22 17.2 63 37 2.6 36.6
08:40 1025 30.27 854 25.22 17.9 64.2 40 4.3 39.8
08:45 1025 30.27 854 25.22 17.6 63.6 43 5 41.1
08:50 1025 30.27 854 25.22 17.6 63.7 42 4.7 40.5
08:55 1025 30.27 854 25.22 17.7 63.9 39 3.9 38.9
09:00 1025 30.27 854 25.22 18.5 65.3 37 3.9 39
09:05 1025 30.27 854 25.22 18.9 66 37 3.9 39
09:10 1025 30.27 854 25.22 19.6 67.2 33 3.1 37.6
09:15 1025 30.27 854 25.22 19.9 67.9 35 4.2 39.6
09:20 1025 30.27 854 25.22 20 67.9 32 3.1 37.5
09:25 1025 30.27 854 25.22 20.4 68.8 31 3 37.3
09:30 1025 30.27 854 25.22 20.3 68.5 30 2.5 36.4
09:35 1025 30.27 854 25.22 19.7 67.4 31 2.3 36.1
09:40 1025 30.27 854 25.22 19.1 66.4 31 1.8 35.3
09:45 1025 30.27 854 25.22 19.4 66.9 32 2.6 36.7
09:50 1025 30.27 854 25.22 19.6 67.3 32 2.7 36.8
09:55 1025 30.27 854 25.22 19.7 67.4 33 3 37.3
10:00 1025 30.27 854 25.22 19.9 67.7 32 3 37.4
10:05 1025 30.27 854 25.22 20.6 69 32 3.5 38.3
10:10 1025 30.27 854 25.22 21.5 70.7 29 3 37.4
10:15 1025 30.27 854 25.22 22 71.6 29 3.1 37.7
10:20 1025 30.27 854 25.22 22.2 72 29 3.3 38
10:25 1025 30.27 854 25.22 22.1 71.8 28 3.1 37.5
10:30 1025 30.27 854 25.22 22.5 72.5 27 2.5 36.6
10:35 1025 30.27 854 25.22 22.6 72.8 27 3.1 37.6
10:40 1025 30.27 855 25.25 22.8 73 27 3.1 37.6
10:45 1025 30.27 854 25.22 23.2 73.8 26 2.7 36.8
10:50 1025 30.27 854 25.22 23.4 74.1 26 3.1 37.6
10:55 1025 30.27 854 25.22 22.8 73 27 3.2 37.8
11:00 1025 30.27 854 25.22 22.4 72.4 27 2.5 36.6
11:05 1025 30.27 854 25.22 23.2 73.8 26 3 37.5
11:10 1025 30.27 854 25.22 23.8 74.8 25 2.9 37.3
11:15 1025 30.27 854 25.22 23.9 75.1 26 3.5 38.3
11:20 1025 30.27 854 25.22 23.8 74.8 26 3.3 37.9
11:25 1025 30.27 854 25.22 24.1 75.4 26 3.7 38.6
11:30 1025 30.27 855 25.25 24.2 75.5 26 3.8 38.9
11:35 1025 30.27 855 25.25 23.9 75 26 3.2 37.8
11:40 1025 30.27 855 25.25 23.8 74.9 27 4 39.2
11:45 1025 30.27 855 25.25 23.8 74.9 27 3.8 38.9
11:50 1025 30.27 855 25.25 23.7 74.7 27 4 39.2
11:55 1025 30.27 855 25.25 23.3 73.9 28 3.8 38.9
12:00 1025 30.27 854 25.22 23.7 74.7 27 3.7 38.6
12:05 1025 30.27 854 25.22 24.1 75.3 26 3.7 38.7
12:10 1025 30.27 854 25.22 24.5 76.1 26 4.1 39.4
12:15 1025 30.27 854 25.22 24.6 76.2 27 4.7 40.4
12:20 1025 30.27 854 25.22 24.8 76.7 26 4.1 39.4
12:25 1025 30.27 854 25.22 25.2 77.3 25 4.2 39.5
12:30 1025 30.27 854 25.22 25.5 78 25 4.1 39.4
12:35 1025 30.27 854 25.22 25.7 78.2 24 4 39.3
12:40 1025 30.27 854 25.22 25.8 78.4 24 4 39.2
12:45 1025 30.27 854 25.22 25.9 78.6 23 3.6 38.5
12:50 1025 30.27 854 25.22 26 78.7 23 3.5 38.3
12:55 1025 30.27 854 25.22 25.9 78.6 23 3.6 38.5
13:00 1025 30.27 854 25.22 26 78.9 23 3.6 38.5
13:05 1025 30.27 854 25.22 25.7 78.3 25 4.3 39.7
13:10 1025 30.27 854 25.22 25.8 78.5 23 3.6 38.4
13:15 1025 30.27 854 25.22 26 78.8 23 3.8 38.9
13:20 1025 30.27 854 25.22 26.2 79.2 23 3.6 38.4
13:25 1024 30.24 854 25.22 25.6 78.1 25 4.3 39.7
13:30 1024 30.24 854 25.22 25.4 77.7 23 3.2 37.8
13:35 1024 30.24 854 25.22 25.3 77.6 23 3.1 37.6
13:40 1024 30.24 853 25.19 25.7 78.2 23 3.2 37.8
13:45 1024 30.24 853 25.19 26 78.8 23 3.3 37.9
13:50 1024 30.24 853 25.19 25.9 78.5 23 3.5 38.2
13:55 1024 30.24 853 25.19 26.4 79.4 22 3.4 38.1
14:00 1024 30.24 853 25.19 26.5 79.7 21 2.8 37
14:05 1024 30.24 853 25.19 26.4 79.5 22 3.1 37.6
14:10 1024 30.24 853 25.19 27.2 81 20 2.6 36.8
14:15 1024 30.24 853 25.19 27.6 81.7 20 2.7 36.9
14:20 1024 30.24 853 25.19 28 82.4 19 2.5 36.5
14:25 1024 30.24 853 25.19 28 82.3 19 2.4 36.4
14:30 1024 30.24 853 25.19 28.3 83 18 2.1 35.8
14:35 1024 30.24 853 25.19 28.2 82.8 19 2.6 36.6
14:40 1023 30.21 853 25.19 28.5 83.3 18 2 35.6
14:45 1023 30.21 853 25.19 28.5 83.3 18 2.1 35.7
14:50 1023 30.21 853 25.19 28.2 82.8 18 1.7 35
14:55 1023 30.21 853 25.19 28.3 83 17 1 33.8
15:00 1023 30.21 853 25.19 28.7 83.7 17 1.8 35.2
15:05 1023 30.21 852 25.16 29.1 84.4 15 0.6 33.1
15:10 1023 30.21 852 25.16 29.3 84.7 14 -0.2 31.7
15:15 1023 30.21 852 25.16 29.3 84.8 15 0.2 32.3
15:20 1023 30.21 852 25.16 29.6 85.2 14 0.1 32.1
15:25 1023 30.21 852 25.16 29.6 85.3 14 -0.1 31.9
15:30 1023 30.21 852 25.16 29.7 85.5 14 -0.3 31.4
15:35 1023 30.21 852 25.16 29.7 85.4 14 -0.5 31.1
15:40 1023 30.21 852 25.16 29.4 84.9 14 -0.5 31.1
15:45 1023 30.21 852 25.16 29.4 84.9 14 -0.5 31.1
15:50 1023 30.21 852 25.16 29.7 85.4 13 -1 30.1
15:55 1023 30.21 852 25.16 29.5 85 15 0.5 32.9
16:00 1023 30.21 852 25.16 29.5 85.1 14 -0.2 31.7
16:05 1023 30.21 852 25.16 28.4 83.2 16 0.8 33.4
16:10 1023 30.21 852 25.16 28.4 83.1 16 0.1 32.2
16:15 1023 30.21 852 25.16 28.9 84.1 15 0 32
16:20 1023 30.21 852 25.16 29.2 84.5 15 0.5 32.8
16:25 1023 30.21 852 25.16 29.3 84.8 16 1.6 34.9
16:30 1023 30.21 852 25.16 29.5 85.1 15 0.2 32.3
16:35 1023 30.21 852 25.16 29.8 85.6 15 0.3 32.6
16:40 1023 30.21 852 25.16 29.9 85.7 15 0.7 33.3
16:45 1023 30.21 852 25.16 29.8 85.7 14 -0.5 31.2
16:50 1023 30.21 852 25.16 29.4 84.8 15 0.4 32.7
16:55 1023 30.21 852 25.16 29 84.1 15 0.4 32.7
17:00 1023 30.21 852 25.16 28.1 82.5 16 0.4 32.8
17:05 1023 30.21 852 25.16 27.6 81.6 19 1.9 35.5
17:10 1023 30.21 852 25.16 26.8 80.3 20 2.4 36.3
17:15 1023 30.21 852 25.16 26.7 80.1 18 0.5 32.9
17:20 1023 30.21 852 25.16 26.5 79.8 20 1.9 35.4
17:25 1023 30.21 852 25.16 26.2 79.1 19 1 33.8
17:30 1023 30.21 852 25.16 26 78.7 18 0.2 32.4
17:35 1023 30.21 852 25.16 25.8 78.4 20 1.1 34
17:40 1023 30.21 852 25.16 25.6 78.1 22 2.6 36.6
17:45 1023 30.21 852 25.16 25.4 77.7 23 2.8 37
17:50 1023 30.21 852 25.16 25 76.9 22 2 35.6
17:55 1023 30.21 852 25.16 24.7 76.5 21 1.5 34.7
18:00 1023 30.21 852 25.16 24.7 76.4 23 2.3 36.1
18:05 1023 30.21 852 25.16 24.5 76.1 22 1.5 34.7
18:10 1023 30.21 852 25.16 24.4 76 23 2 35.6
18:15 1023 30.21 852 25.16 24.3 75.8 24 2.7 36.8
18:20 1023 30.21 853 25.19 24.1 75.3 24 2.3 36.1
18:25 1024 30.24 853 25.19 24 75.2 23 2 35.6
18:30 1024 30.24 853 25.19 24 75.1 25 3.2 37.8
18:35 1024 30.24 853 25.19 23.5 74.3 27 3.5 38.4
18:40 1024 30.24 853 25.19 23.2 73.8 26 3 37.4
18:45 1024 30.24 853 25.19 23.1 73.5 26 2.6 36.7
18:50 1024 30.24 853 25.19 23.1 73.6 24 1.9 35.4
18:55 1024 30.24 853 25.19 23.3 74 24 2.1 35.7
19:00 1024 30.24 853 25.19 23.4 74.1 24 2.1 35.7
19:05 1024 30.24 853 25.19 23.5 74.3 24 1.9 35.4
19:10 1024 30.24 853 25.19 23.4 74.2 25 2.6 36.6
19:15 1024 30.24 853 25.19 23.1 73.6 26 2.9 37.2
19:20 1024 30.24 853 25.19 23.2 73.7 26 3 37.3
19:25 1024 30.24 853 25.19 23.2 73.7 25 2.3 36.2
19:30 1024 30.24 853 25.19 23.2 73.8 25 2.5 36.5
19:35 1024 30.24 853 25.19 23.3 73.9 26 3 37.3
19:40 1023 30.21 853 25.19 23.2 73.7 28 3.7 38.7
19:45 1023 30.21 853 25.19 22.7 72.9 25 2.1 35.7
19:50 1023 30.21 853 25.19 23.1 73.5 29 4.1 39.4
19:55 1023 30.21 852 25.16 23.2 73.8 30 5 41
20:00 1023 30.21 852 25.16 22.8 73 28 3.8 38.8
20:05 1023 30.21 852 25.16 22.4 72.3 29 3.5 38.3
20:10 1023 30.21 852 25.16 22.4 72.2 26 2.4 36.2
20:15 1023 30.21 852 25.16 22.5 72.4 25 1.5 34.7
20:20 1023 30.21 852 25.16 22.7 72.8 26 2.3 36.2
20:25 1023 30.21 852 25.16 22.1 71.8 29 3.4 38.1
20:30 1023 30.21 852 25.16 21.6 71 30 3.4 38.1
20:35 1023 30.21 852 25.16 21.1 69.9 31 3.4 38.1
20:40 1023 30.21 852 25.16 20.8 69.5 30 2.6 36.7
20:45 1023 30.21 852 25.16 20.6 69.1 30 2.4 36.2
20:50 1023 30.21 853 25.19 20.6 69.1 29 2.2 35.9
20:55 1023 30.21 853 25.19 20.7 69.2 29 2.2 35.9
21:00 1024 30.24 853 25.19 20.4 68.8 32 3.3 37.9
21:05 1024 30.24 853 25.19 19.9 67.7 31 2.3 36.2
21:10 1024 30.24 853 25.19 19.9 67.9 32 2.9 37.2
21:15 1024 30.24 853 25.19 20 68 34 3.8 38.9
21:20 1024 30.24 853 25.19 19.8 67.6 32 2.9 37.3
21:25 1024 30.24 853 25.19 19.2 66.6 32 2.3 36.2
21:30 1024 30.24 853 25.19 19.4 66.9 30 1.6 34.8
21:35 1024 30.24 854 25.22 19.9 67.9 28 1.2 34.1
21:40 1024 30.24 854 25.22 20.5 68.9 28 1.5 34.7
21:45 1024 30.24 854 25.22 21.1 70 27 1.7 35.1
21:50 1024 30.24 854 25.22 21.4 70.5 28 2.2 35.9
21:55 1024 30.24 854 25.22 21.4 70.5 28 2.5 36.5
22:00 1024 30.24 854 25.22 21.5 70.6 29 2.7 36.9
22:05 1024 30.24 854 25.22 21.3 70.4 29 2.8 37.1
22:10 1024 30.24 854 25.22 21.2 70.1 29 2.8 37.1
22:15 1025 30.27 854 25.22 21.1 70 30 3 37.4
22:20 1025 30.27 854 25.22 21 69.7 30 3.1 37.6
22:25 1024 30.24 854 25.22 20.8 69.4 31 3.3 37.9
22:30 1024 30.24 854 25.22 20.6 69 32 3.3 37.9
22:35 1024 30.24 854 25.22 20.5 68.9 32 3.3 38
22:40 1024 30.24 854 25.22 20.4 68.8 32 3.4 38.1
22:45 1024 30.24 853 25.19 20.4 68.8 32 3.3 37.9
22:50 1024 30.24 853 25.19 20.5 68.8 32 3.4 38.2
22:55 1024 30.24 853 25.19 20.4 68.7 32 3.4 38.2
23:00 1024 30.24 853 25.19 20.3 68.6 32 3.4 38.1
23:05 1024 30.24 853 25.19 20.3 68.6 32 3.3 37.9
23:10 1024 30.24 853 25.19 20.4 68.8 32 3.2 37.8
23:15 1024 30.24 853 25.19 20.4 68.8 32 3.3 37.9
23:20 1024 30.24 854 25.22 20.5 68.8 32 3.2 37.8
23:25 1024 30.24 854 25.22 20.5 68.9 32 3.2 37.8
23:30 1025 30.27 854 25.22 20.6 69 31 3.1 37.6
23:35 1025 30.27 854 25.22 20.6 69 31 3.2 37.8
23:40 1025 30.27 854 25.22 20.5 68.8 32 3.3 37.9
23:45 1025 30.27 854 25.22 20.5 68.9 31 3.1 37.5
23:50 1024 30.24 854 25.22 20.7 69.2 31 3.2 37.7
23:55 1024 30.24 854 25.22 20.6 69 31 3.2 37.8
24:00 1024 30.24 854 25.22 20.6 69.1 31 3.1 37.6